Time;durP1;ratioP1;P1;durP2;ratioP2;P2;SDS_P1;SDS_P2;PMS_P1;PMS_P2;Temp;Humidity;BMP_temperature;BMP_pressure;BME280_temperature;BME280_humidity;BME280_pressure;Samples;Min_cycle;Max_cycle;Signal;HPM_P1;HPM_P2
2021/08/19 00:02:13;;;;;;;;;0.00;0.00;;;;;26.21;45.41;100974.16;5077441;27;45510;-64
2021/08/19 00:04:46;;;;;;;;;0.00;0.00;;;;;26.19;45.09;100966.03;5077306;28;45520;-64
2021/08/19 00:07:12;;;;;;;;;0.00;0.00;;;;;26.20;44.99;100972.38;5077427;28;45816;-64
2021/08/19 00:09:38;;;;;;;;;0.00;0.00;;;;;26.20;45.23;100973.28;5077422;28;45554;-63
2021/08/19 00:12:10;;;;;;;;;0.00;0.00;;;;;26.18;45.23;100969.75;5076909;28;45547;-63
2021/08/19 00:14:36;;;;;;;;;0.00;0.00;;;;;26.19;45.48;100974.22;5077378;28;45464;-63
2021/08/19 00:17:06;;;;;;;;;0.00;0.00;;;;;26.18;45.61;100971.56;5077481;28;45444;-64
2021/08/19 00:19:31;;;;;;;;;0.00;0.00;;;;;26.18;45.52;100968.84;5077570;28;45465;-63
2021/08/19 00:21:57;;;;;;;;;0.00;0.00;;;;;26.18;45.37;100964.28;5076645;28;45771;-63
2021/08/19 00:24:29;;;;;;;;;0.00;0.00;;;;;26.19;44.98;100960.59;5075788;28;45476;-64
2021/08/19 00:26:54;;;;;;;;;0.00;0.00;;;;;26.18;45.38;100960.66;5077291;28;45823;-64
2021/08/19 00:29:20;;;;;;;;;0.00;0.00;;;;;26.19;45.10;100954.25;5077181;28;45457;-64
2021/08/19 00:31:45;;;;;;;;;0.00;0.00;;;;;26.17;45.06;100948.88;5058659;28;46799;-64
2021/08/19 00:34:10;;;;;;;;;0.00;0.00;;;;;26.20;45.38;100950.56;5076886;28;45454;-64
2021/08/19 00:36:36;;;;;;;;;0.00;0.00;;;;;26.19;45.44;100941.50;5058705;28;45405;-64
2021/08/19 00:39:02;;;;;;;;;0.00;0.00;;;;;26.19;45.00;100940.63;5042307;28;45338;-64
2021/08/19 00:41:28;;;;;;;;;0.00;0.00;;;;;26.19;45.00;100932.44;5076782;28;45571;-65
2021/08/19 00:43:55;;;;;;;;;0.00;0.00;;;;;26.19;45.02;100927.00;5076869;28;45752;-65
2021/08/19 00:46:28;;;;;;;;;0.00;0.00;;;;;26.19;45.63;100938.78;5042122;28;45652;-64
2021/08/19 00:48:57;;;;;;;;;0.00;0.00;;;;;26.20;45.31;100939.66;5076873;28;45434;-64
2021/08/19 00:51:23;;;;;;;;;0.00;0.00;;;;;26.19;45.23;100933.31;5075688;28;45538;-64
2021/08/19 00:53:48;;;;;;;;;0.00;0.00;;;;;26.20;45.23;100934.22;5075892;28;45531;-64
2021/08/19 00:56:15;;;;;;;;;0.00;0.00;;;;;26.21;45.24;100939.59;5077016;28;45571;-64
2021/08/19 00:58:41;;;;;;;;;0.00;0.00;;;;;26.22;44.99;100945.91;5076999;28;45550;-65
2021/08/19 01:01:07;;;;;;;;;0.00;0.00;;;;;26.22;44.97;100945.91;5076524;28;46395;-65
2021/08/19 01:03:33;;;;;;;;;0.00;0.00;;;;;26.20;44.92;100943.28;5076357;27;45373;-65
2021/08/19 01:05:58;;;;;;;;;0.00;0.00;;;;;26.21;44.87;100946.91;5076575;28;45421;-66
2021/08/19 01:08:25;;;;;;;;;0.00;0.00;;;;;26.21;45.41;100936.00;5076756;28;45759;-65
2021/08/19 01:10:51;;;;;;;;;0.00;0.00;;;;;26.21;45.07;100939.59;5076310;28;45695;-65
2021/08/19 01:13:16;;;;;;;;;0.00;0.00;;;;;26.22;44.97;100937.75;5057213;28;46121;-65
2021/08/19 01:15:41;;;;;;;;;0.00;0.00;;;;;26.20;45.23;100928.75;5058293;28;45474;-65
2021/08/19 01:18:07;;;;;;;;;0.00;0.00;;;;;26.21;44.97;100930.53;5076388;28;45455;-64
2021/08/19 01:20:37;;;;;;;;;0.00;0.00;;;;;26.21;45.11;100930.53;5057780;28;47370;-64
2021/08/19 01:23:09;;;;;;;;;0.00;0.00;;;;;26.21;44.75;100930.53;5074709;28;45415;-64
2021/08/19 01:25:34;;;;;;;;;0.00;0.00;;;;;26.21;44.87;100925.97;5076112;28;45503;-64
2021/08/19 01:28:00;;;;;;;;;0.00;0.00;;;;;26.16;45.07;100919.88;5076284;28;45526;-65
2021/08/19 01:30:26;;;;;;;;;0.00;0.00;;;;;26.20;45.08;100920.56;5076130;28;46305;-65
2021/08/19 01:32:51;;;;;;;;;0.00;0.00;;;;;26.21;45.33;100925.09;5075803;28;45431;-65
2021/08/19 01:35:27;;;;;;;;;0.00;0.00;;;;;26.22;45.05;100921.38;5076191;28;45745;-65
2021/08/19 01:37:52;;;;;;;;;0.00;0.00;;;;;26.21;45.05;100912.31;5076236;28;45417;-64
2021/08/19 01:40:17;;;;;;;;;0.00;0.00;;;;;26.21;45.02;100915.06;5075925;28;45355;-64
2021/08/19 01:42:44;;;;;;;;;0.00;0.00;;;;;26.20;45.54;100909.66;5075771;28;45487;-65
2021/08/19 01:45:12;;;;;;;;;0.00;0.00;;;;;26.22;44.82;100916.84;5075892;28;45416;-67
2021/08/19 01:47:39;;;;;;;;;0.00;0.00;;;;;26.22;45.25;100916.84;5075942;28;45529;-65
2021/08/19 01:50:05;;;;;;;;;0.00;0.00;;;;;26.22;44.82;100914.13;5057472;28;46426;-65
2021/08/19 01:52:30;;;;;;;;;0.00;0.00;;;;;26.18;45.17;100903.41;5075716;28;45450;-65
2021/08/19 01:54:56;;;;;;;;;0.00;0.00;;;;;26.18;45.25;100911.59;5057320;28;45425;-65
2021/08/19 01:57:23;;;;;;;;;0.00;0.00;;;;;26.20;44.91;100912.41;5076067;28;45457;-65
2021/08/19 01:59:50;;;;;;;;;0.00;0.00;;;;;26.18;45.24;100911.59;5075727;28;45963;-64
2021/08/19 02:02:15;;;;;;;;;0.00;0.00;;;;;26.19;45.33;100905.19;5075691;27;45438;-64
2021/08/19 02:04:40;;;;;;;;;0.00;0.00;;;;;26.20;44.90;100906.94;5075234;28;45530;-64
2021/08/19 02:07:06;;;;;;;;;0.00;0.00;;;;;26.18;45.24;100907.03;5075602;28;45443;-65
2021/08/19 02:09:32;;;;;;;;;0.00;0.00;;;;;26.17;44.97;100909.84;5075288;28;45481;-64
2021/08/19 02:11:58;;;;;;;;;0.00;0.00;;;;;26.17;45.18;100902.53;5075236;28;45564;-64
2021/08/19 02:14:23;;;;;;;;;0.00;0.00;;;;;26.13;45.28;100907.25;5075449;28;45812;-64
2021/08/19 02:16:48;;;;;;;;;0.00;0.00;;;;;26.14;44.95;100905.44;5075846;28;45744;-64
2021/08/19 02:19:14;;;;;;;;;0.00;0.00;;;;;26.13;44.88;100904.50;5056817;28;45473;-65
2021/08/19 02:21:41;;;;;;;;;0.00;0.00;;;;;26.12;45.02;100905.50;5075358;28;45589;-65
2021/08/19 02:24:07;;;;;;;;;0.00;0.00;;;;;26.12;45.15;100910.94;5053097;28;45491;-65
2021/08/19 02:26:32;;;;;;;;;0.00;0.00;;;;;26.11;45.14;100903.72;5055099;28;45399;-65
2021/08/19 02:28:57;;;;;;;;;0.00;0.00;;;;;26.09;45.23;100894.72;5054771;28;45795;-65
2021/08/19 02:31:23;;;;;;;;;0.00;0.00;;;;;26.11;45.26;100898.25;5053543;28;45594;-65
2021/08/19 02:33:48;;;;;;;;;0.00;0.00;;;;;26.11;45.17;100897.38;5054856;28;45434;-64
2021/08/19 02:36:14;;;;;;;;;0.00;0.00;;;;;26.08;45.12;100884.78;5055138;28;45739;-65
2021/08/19 02:38:39;;;;;;;;;0.00;0.00;;;;;26.09;45.05;100885.66;5053260;28;46406;-65
2021/08/19 02:41:04;;;;;;;;;0.00;0.00;;;;;26.10;45.11;100892.91;5054529;28;45373;-64
2021/08/19 02:43:30;;;;;;;;;0.00;0.00;;;;;26.09;44.61;100892.00;5054714;28;45407;-64
2021/08/19 02:45:57;;;;;;;;;0.00;0.00;;;;;26.10;45.00;100885.59;5054863;28;45436;-65
2021/08/19 02:48:22;;;;;;;;;0.00;0.00;;;;;26.07;45.21;100880.28;5054894;28;46254;-65
2021/08/19 02:50:47;;;;;;;;;0.00;0.00;;;;;26.08;45.31;100884.78;5053057;28;45481;-65
2021/08/19 02:53:13;;;;;;;;;0.00;0.00;;;;;26.09;44.86;100880.22;5054653;28;45455;-64
2021/08/19 02:55:38;;;;;;;;;0.00;0.00;;;;;26.08;45.01;100876.63;5054834;28;45556;-64
2021/08/19 02:58:04;;;;;;;;;0.00;0.00;;;;;26.08;45.12;100882.06;5054339;28;46560;-64
2021/08/19 03:00:30;;;;;;;;;0.00;0.00;;;;;26.09;44.98;100881.09;5054574;28;45465;-64
2021/08/19 03:02:55;;;;;;;;;0.00;0.00;;;;;26.07;45.26;100880.28;5054643;28;45561;-64
2021/08/19 03:05:21;;;;;;;;;0.00;0.00;;;;;26.08;44.87;100876.63;5054640;28;45443;-65
2021/08/19 03:07:46;;;;;;;;;0.00;0.00;;;;;26.07;44.96;100873.97;5054312;28;45357;-65
2021/08/19 03:10:11;;;;;;;;;0.00;0.00;;;;;26.07;44.72;100874.84;5053808;28;45526;-65
2021/08/19 03:12:37;;;;;;;;;0.00;0.00;;;;;26.07;45.04;100872.09;5052809;28;45866;-64
2021/08/19 03:15:03;;;;;;;;;0.00;0.00;;;;;26.07;44.86;100880.28;5055043;28;45496;-64
2021/08/19 03:17:29;;;;;;;;;0.00;0.00;;;;;26.07;45.32;100879.41;5057899;28;45390;-65
2021/08/19 03:19:54;;;;;;;;;0.00;0.00;;;;;26.03;44.73;100867.75;5057689;28;45684;-65
2021/08/19 03:22:21;;;;;;;;;0.00;0.00;;;;;26.05;45.06;100874.03;5056446;28;45381;-65
2021/08/19 03:24:46;;;;;;;;;0.00;0.00;;;;;26.05;45.27;100881.31;5056354;28;45488;-64
2021/08/19 03:27:13;;;;;;;;;0.00;0.00;;;;;26.05;45.13;100867.69;5056004;28;45736;-64
2021/08/19 03:29:38;;;;;;;;;0.00;0.00;;;;;26.05;45.26;100871.28;5057630;28;45467;-64
2021/08/19 03:32:04;;;;;;;;;0.00;0.00;;;;;26.04;44.94;100875.00;5057788;28;45502;-64
2021/08/19 03:34:29;;;;;;;;;0.00;0.00;;;;;26.04;44.96;100869.53;5057844;28;45575;-65
2021/08/19 03:36:56;;;;;;;;;0.00;0.00;;;;;26.04;45.08;100863.22;5057624;28;45484;-65
2021/08/19 03:39:23;;;;;;;;;0.00;0.00;;;;;26.04;45.42;100866.81;5057602;28;45525;-65
2021/08/19 03:41:49;;;;;;;;;0.00;0.00;;;;;26.02;44.93;100859.69;5057437;28;45448;-65
2021/08/19 03:44:16;;;;;;;;;0.00;0.00;;;;;26.04;44.97;100868.66;5057863;28;45388;-65
2021/08/19 03:46:41;;;;;;;;;0.00;0.00;;;;;26.02;45.34;100857.84;5057698;28;45502;-64
2021/08/19 03:49:07;;;;;;;;;0.00;0.00;;;;;26.04;45.17;100863.22;5057301;28;45431;-64
2021/08/19 03:51:32;;;;;;;;;0.00;0.00;;;;;26.03;45.11;100861.44;5057532;28;45499;-64
2021/08/19 03:53:58;;;;;;;;;0.00;0.00;;;;;26.01;45.33;100858.78;5057635;28;45433;-64
2021/08/19 03:56:27;;;;;;;;;0.00;0.00;;;;;26.02;44.84;100857.84;5057632;28;46103;-64
2021/08/19 03:58:53;;;;;;;;;0.00;0.00;;;;;26.02;45.16;100863.28;5057420;28;45460;-64
2021/08/19 04:01:18;;;;;;;;;0.00;0.00;;;;;26.03;45.16;100856.84;5057895;28;45695;-64
2021/08/19 04:03:44;;;;;;;;;0.00;0.00;;;;;26.02;44.83;100863.28;5057323;28;45476;-64
2021/08/19 04:06:09;;;;;;;;;0.00;0.00;;;;;26.03;45.25;100867.75;5056956;28;46225;-64
2021/08/19 04:08:35;;;;;;;;;0.00;0.00;;;;;26.03;45.41;100856.84;5057458;28;45389;-64
2021/08/19 04:11:00;;;;;;;;;0.00;0.00;;;;;26.02;45.07;100863.28;5057257;28;45434;-64
2021/08/19 04:13:25;;;;;;;;;0.00;0.00;;;;;26.03;45.01;100859.59;5057078;28;45758;-64
2021/08/19 04:15:52;;;;;;;;;0.00;0.00;;;;;26.02;45.26;100866.00;5056850;28;45983;-64
2021/08/19 04:18:19;;;;;;;;;0.00;0.00;;;;;26.03;45.02;100866.88;5055781;28;45467;-64
2021/08/19 04:20:44;;;;;;;;;0.00;0.00;;;;;26.02;45.04;100860.56;5057236;28;45771;-64
2021/08/19 04:23:09;;;;;;;;;0.00;0.00;;;;;26.03;45.16;100866.88;5061396;28;45554;-64
2021/08/19 04:25:36;;;;;;;;;0.00;0.00;;;;;26.04;45.01;100863.22;5077174;28;45465;-64
2021/08/19 04:28:02;;;;;;;;;0.00;0.00;;;;;26.02;44.87;100857.84;5058507;28;45425;-64
2021/08/19 04:30:27;;;;;;;;;0.00;0.00;;;;;26.01;45.00;100864.22;5077365;28;45436;-64
2021/08/19 04:32:52;;;;;;;;;0.00;0.00;;;;;26.01;44.82;100863.34;5077175;28;45326;-64
2021/08/19 04:35:18;;;;;;;;;0.00;0.00;;;;;26.02;45.10;100860.56;5058373;28;47065;-64
2021/08/19 04:37:43;;;;;;;;;0.00;0.00;;;;;26.00;44.99;100857.03;5077017;28;45382;-64
2021/08/19 04:40:09;;;;;;;;;0.00;0.00;;;;;26.03;44.97;100862.31;5058716;28;45372;-64
2021/08/19 04:42:34;;;;;;;;;0.00;0.00;;;;;26.01;44.82;100858.78;5058868;28;45820;-64
2021/08/19 04:45:00;;;;;;;;;0.00;0.00;;;;;26.03;44.98;100861.44;5076829;28;45836;-64
2021/08/19 04:47:25;;;;;;;;;0.00;0.00;;;;;26.01;44.99;100852.44;5077098;28;45701;-64
2021/08/19 04:49:50;;;;;;;;;0.00;0.00;;;;;26.01;44.65;100861.50;5058436;28;45385;-64
2021/08/19 04:52:16;;;;;;;;;0.00;0.00;;;;;26.00;45.00;100867.94;5076961;28;45503;-64
2021/08/19 04:54:41;;;;;;;;;0.00;0.00;;;;;26.01;44.92;100866.06;5076579;28;45459;-64
2021/08/19 04:57:07;;;;;;;;;0.00;0.00;;;;;26.01;45.03;100875.13;5058307;28;45895;-64
2021/08/19 04:59:32;;;;;;;;;0.00;0.00;;;;;26.00;44.88;100876.09;5076990;28;45405;-64
2021/08/19 05:01:57;;;;;;;;;0.00;0.00;;;;;26.00;44.99;100873.38;5076933;27;45425;-64
2021/08/19 05:04:23;;;;;;;;;0.00;0.00;;;;;26.01;45.09;100875.13;5076552;28;45378;-64
2021/08/19 05:06:48;;;;;;;;;0.00;0.00;;;;;26.01;44.73;100872.41;5076336;28;45488;-64
2021/08/19 05:09:13;;;;;;;;;0.00;0.00;;;;;26.01;45.04;100868.81;5076624;28;45452;-64
2021/08/19 05:11:39;;;;;;;;;0.00;0.00;;;;;26.01;45.21;100875.13;5058302;28;45741;-64
2021/08/19 05:14:04;;;;;;;;;0.00;0.00;;;;;26.02;45.12;100876.91;5057971;28;48095;-64
2021/08/19 05:16:32;;;;;;;;;0.00;0.00;;;;;26.02;44.90;100882.38;5076639;28;45553;-64
2021/08/19 05:18:57;;;;;;;;;0.00;0.00;;;;;26.03;44.98;100875.06;5057664;28;45460;-64
2021/08/19 05:21:23;;;;;;;;;0.00;0.00;;;;;26.02;45.08;100874.19;5058090;28;45501;-64
2021/08/19 05:23:48;;;;;;;;;0.00;0.00;;;;;26.02;44.39;100882.38;5074905;28;45410;-64
2021/08/19 05:26:13;;;;;;;;;0.00;0.00;;;;;26.02;45.15;100879.63;5076304;28;45764;-64
2021/08/19 05:28:40;;;;;;;;;0.00;0.00;;;;;26.00;45.14;100872.50;5076266;28;45495;-64
2021/08/19 05:31:05;;;;;;;;;0.00;0.00;;;;;26.01;45.01;100880.59;5076644;28;45706;-64
2021/08/19 05:33:31;;;;;;;;;0.00;0.00;;;;;26.00;44.86;100881.56;5075997;28;46058;-65
2021/08/19 05:35:56;;;;;;;;;0.00;0.00;;;;;26.01;45.08;100879.72;5057579;28;45515;-64
2021/08/19 05:38:22;;;;;;;;;0.00;0.00;;;;;26.02;45.07;100876.03;5075279;28;45464;-64
2021/08/19 05:40:47;;;;;;;;;0.00;0.00;;;;;26.03;44.95;100884.13;5076209;28;45503;-64
2021/08/19 05:43:12;;;;;;;;;0.00;0.00;;;;;26.02;45.04;100882.38;5075880;28;45630;-64
2021/08/19 05:45:40;;;;;;;;;0.00;0.00;;;;;26.01;44.85;100880.59;5075819;28;45449;-64
2021/08/19 05:48:05;;;;;;;;;0.00;0.00;;;;;26.02;44.82;100878.75;5057730;28;45468;-64
2021/08/19 05:50:33;;;;;;;;;0.00;0.00;;;;;26.02;45.12;100893.25;5075807;28;45437;-64
2021/08/19 05:52:58;;;;;;;;;0.00;0.00;;;;;26.03;44.90;100888.69;5075519;28;45465;-64
2021/08/19 05:55:24;;;;;;;;;0.00;0.00;;;;;26.04;44.89;100895.94;5057278;28;45452;-64
2021/08/19 05:57:51;;;;;;;;;0.00;0.00;;;;;26.03;44.63;100897.75;5075560;28;45904;-64
2021/08/19 06:00:21;;;;;;;;;0.00;0.00;;;;;26.04;44.65;100890.47;5075595;28;45484;-64
2021/08/19 06:02:50;;;;;;;;;0.00;0.00;;;;;26.06;44.89;100894.88;5075346;28;45947;-64
2021/08/19 06:05:23;;;;;;;;;0.00;0.00;;;;;26.07;44.78;100898.50;5075630;28;45525;-64
2021/08/19 06:07:48;;;;;;;;;0.00;0.00;;;;;26.07;44.57;100899.38;5075451;28;45419;-64
2021/08/19 06:10:14;;;;;;;;;0.00;0.00;;;;;26.07;44.61;100883.00;5076009;28;45376;-64
2021/08/19 06:12:40;;;;;;;;;0.00;0.00;;;;;26.09;44.76;100892.00;5075267;28;46819;-64
2021/08/19 06:15:07;;;;;;;;;0.00;0.00;;;;;26.08;44.77;100894.81;5075492;28;45702;-64
2021/08/19 06:17:33;;;;;;;;;0.00;0.00;;;;;25.99;44.59;100887.94;5075937;28;45772;-64
2021/08/19 06:19:59;;;;;;;;;0.00;0.00;;;;;25.88;44.47;100882.13;5075732;28;45456;-64
2021/08/19 06:22:25;;;;;;;;;1.00;0.33;;;;;25.79;44.28;100882.53;5074952;28;45497;-65
2021/08/19 06:24:50;;;;;;;;;0.33;0.33;;;;;25.69;44.76;100885.72;5073829;28;45421;-65
2021/08/19 06:27:16;;;;;;;;;1.00;1.00;;;;;25.64;44.55;100887.75;5075709;28;45441;-65
2021/08/19 06:29:43;;;;;;;;;3.33;3.33;;;;;25.57;44.76;100891.69;5075650;28;45396;-64
2021/08/19 06:32:08;;;;;;;;;2.67;2.67;;;;;25.49;44.60;100896.59;5075083;28;46561;-64
2021/08/19 06:34:36;;;;;;;;;1.33;1.33;;;;;25.41;44.87;100898.78;5075382;28;45420;-64
2021/08/19 06:37:03;;;;;;;;;4.00;2.67;;;;;25.34;44.86;100890.91;5075309;28;45401;-64
2021/08/19 06:39:29;;;;;;;;;4.00;3.33;;;;;25.27;44.62;100891.25;5075254;28;45510;-65
2021/08/19 06:41:55;;;;;;;;;0.33;0.33;;;;;25.20;44.93;100893.34;5056898;28;47135;-65
2021/08/19 06:44:21;;;;;;;;;4.33;4.33;;;;;25.15;45.20;100892.69;5074970;28;45488;-65
2021/08/19 06:46:46;;;;;;;;;4.00;2.33;;;;;25.12;45.21;100890.94;5075048;28;45428;-65
2021/08/19 06:49:12;;;;;;;;;3.00;3.00;;;;;25.09;45.16;100882.06;5075465;28;45516;-64
2021/08/19 06:51:37;;;;;;;;;3.00;3.00;;;;;25.03;45.33;100885.06;5075138;28;45925;-64
2021/08/19 06:54:04;;;;;;;;;3.00;2.00;;;;;24.98;45.07;100884.34;5074703;28;45715;-64
2021/08/19 06:56:30;;;;;;;;;2.00;2.00;;;;;24.93;45.16;100890.88;5075011;28;45820;-65
2021/08/19 06:58:55;;;;;;;;;3.00;3.00;;;;;24.88;45.25;100889.31;5075094;28;45639;-64
2021/08/19 07:01:21;;;;;;;;;4.67;2.33;;;;;24.81;45.41;100891.41;5074624;28;46029;-64
2021/08/19 07:03:46;;;;;;;;;4.33;4.33;;;;;24.76;45.56;100890.72;5074838;28;45480;-64
2021/08/19 07:06:13;;;;;;;;;3.67;3.67;;;;;24.74;45.20;100889.88;5074869;28;45516;-65
2021/08/19 07:08:39;;;;;;;;;2.67;2.67;;;;;24.69;45.59;100900.09;5074596;28;45459;-64
2021/08/19 07:11:05;;;;;;;;;2.00;2.00;;;;;24.64;45.36;100896.66;5074059;28;46093;-64
2021/08/19 07:13:31;;;;;;;;;2.67;2.67;;;;;24.59;45.81;100893.28;5073201;28;45406;-64
2021/08/19 07:15:56;;;;;;;;;5.00;5.00;;;;;24.56;45.67;100891.56;5074668;28;45431;-64
2021/08/19 07:18:29;;;;;;;;;2.33;1.67;;;;;24.52;45.65;100890.81;5074719;28;45695;-64
2021/08/19 07:20:55;;;;;;;;;3.67;3.67;;;;;24.50;46.14;100880.94;5073600;28;45676;-64
2021/08/19 07:23:20;;;;;;;;;5.33;5.33;;;;;24.48;45.57;100883.69;5073304;28;45538;-64
2021/08/19 07:25:46;;;;;;;;;4.33;3.67;;;;;24.42;45.98;100873.09;5074595;28;45444;-64
2021/08/19 07:28:11;;;;;;;;;3.67;3.67;;;;;24.46;45.84;100882.88;5074817;28;45416;-65
2021/08/19 07:30:38;;;;;;;;;3.00;3.00;;;;;24.49;46.03;100884.56;5074720;28;45408;-64
2021/08/19 07:33:04;;;;;;;;;3.33;3.33;;;;;24.49;46.13;100893.63;5074173;28;45790;-64
2021/08/19 07:35:29;;;;;;;;;2.33;2.33;;;;;24.49;46.12;100885.47;5074768;28;45353;-64
2021/08/19 07:37:56;;;;;;;;;3.00;3.00;;;;;24.53;46.38;100887.13;5074000;28;45393;-65
2021/08/19 07:40:26;;;;;;;;;3.00;3.00;;;;;24.57;46.27;100884.31;5055727;28;46212;-64
2021/08/19 07:42:54;;;;;;;;;3.00;3.00;;;;;24.58;46.40;100884.22;5074095;28;45442;-64
2021/08/19 07:45:21;;;;;;;;;3.00;3.00;;;;;24.60;46.13;100879.59;5074417;28;45528;-64
2021/08/19 07:47:47;;;;;;;;;3.33;1.67;;;;;24.61;46.09;100888.66;5074287;28;45566;-64
2021/08/19 07:50:13;;;;;;;;;5.67;5.00;;;;;24.62;46.21;100891.31;5074019;28;46226;-64
2021/08/19 07:52:39;;;;;;;;;2.67;2.67;;;;;24.62;46.10;100891.31;5073801;28;45518;-64
2021/08/19 07:55:07;;;;;;;;;3.00;3.00;;;;;24.62;46.23;100893.13;5074157;28;45460;-65
2021/08/19 07:57:44;;;;;;;;;4.33;2.67;;;;;24.62;46.17;100884.97;5055733;28;45462;-65
2021/08/19 08:00:10;;;;;;;;;4.33;4.00;;;;;24.63;46.36;100889.47;5073322;28;46325;-65
2021/08/19 08:02:36;;;;;;;;;5.67;5.67;;;;;24.61;46.34;100885.94;5075667;27;45421;-64
2021/08/19 08:05:02;;;;;;;;;5.00;4.00;;;;;24.63;46.14;100889.47;5058779;28;45931;-65
2021/08/19 08:07:29;;;;;;;;;2.00;2.00;;;;;24.63;46.28;100893.06;5076917;28;45522;-64
2021/08/19 08:09:54;;;;;;;;;3.00;3.00;;;;;24.65;46.38;100896.63;5076952;28;47305;-65
2021/08/19 08:12:20;;;;;;;;;4.33;4.33;;;;;24.59;46.20;100896.00;5076924;28;45431;-64
2021/08/19 08:14:45;;;;;;;;;5.00;4.00;;;;;24.43;46.11;100888.44;5076834;28;45426;-65
2021/08/19 08:17:11;;;;;;;;;1.67;1.67;;;;;24.38;46.27;100900.44;5058847;28;45439;-65
2021/08/19 08:19:38;;;;;;;;;4.00;3.00;;;;;24.32;46.25;100898.88;5076831;28;45984;-65
2021/08/19 08:22:03;;;;;;;;;4.00;4.00;;;;;24.31;46.75;100910.69;5076910;28;45496;-65
2021/08/19 08:24:28;;;;;;;;;5.33;5.33;;;;;24.16;46.88;100904.03;5054919;28;45405;-65
2021/08/19 08:26:54;;;;;;;;;4.33;4.33;;;;;24.01;47.20;100910.94;5057077;28;45403;-64
2021/08/19 08:29:20;;;;;;;;;5.00;4.67;;;;;23.95;47.99;100905.75;5056463;28;46093;-64
2021/08/19 08:31:46;;;;;;;;;3.33;3.33;;;;;23.98;47.69;100911.09;5055206;28;44841;-65
2021/08/19 08:34:12;;;;;;;;;4.00;4.00;;;;;24.01;47.82;100902.78;5056889;28;45958;-65
2021/08/19 08:36:37;;;;;;;;;4.00;3.00;;;;;24.08;47.17;100912.50;5055876;28;45428;-64
2021/08/19 08:39:05;;;;;;;;;3.33;3.33;;;;;24.10;47.53;100916.03;5055732;28;45388;-64
2021/08/19 08:41:32;;;;;;;;;4.00;4.00;;;;;24.11;47.78;100923.22;5056331;28;45614;-64
2021/08/19 08:44:00;;;;;;;;;3.00;3.00;;;;;24.13;47.66;100920.44;5056005;28;45424;-65
2021/08/19 08:46:26;;;;;;;;;4.67;4.67;;;;;24.17;47.17;100914.81;5056064;28;45438;-64
2021/08/19 08:48:56;;;;;;;;;2.33;2.33;;;;;24.19;47.33;100913.91;5055988;28;46244;-64
2021/08/19 08:51:24;;;;;;;;;3.33;3.33;;;;;24.21;47.73;100912.00;5056175;28;45372;-65
2021/08/19 08:53:50;;;;;;;;;3.00;3.00;;;;;24.21;47.16;100918.31;5054200;28;45381;-65
2021/08/19 08:56:15;;;;;;;;;5.33;5.33;;;;;24.24;47.31;100914.56;5055581;28;45658;-65
2021/08/19 08:58:41;;;;;;;;;6.00;4.67;;;;;24.27;47.16;100914.47;5055982;28;45393;-65
2021/08/19 09:01:06;;;;;;;;;3.67;3.67;;;;;24.29;47.60;100918.88;5056031;28;45555;-65
2021/08/19 09:03:32;;;;;;;;;2.00;2.00;;;;;24.32;47.33;100926.06;5055849;28;46050;-65
2021/08/19 09:05:57;;;;;;;;;5.67;4.67;;;;;24.35;47.34;100923.19;5055351;28;45862;-64
2021/08/19 09:08:25;;;;;;;;;4.00;3.33;;;;;24.38;46.51;100920.38;5055711;28;45533;-64
2021/08/19 09:10:53;;;;;;;;;3.33;2.67;;;;;24.20;47.12;100923.81;5054225;28;45597;-65
2021/08/19 09:13:23;;;;;;;;;2.33;2.33;;;;;24.07;47.31;100918.84;5054353;28;45756;-64
2021/08/19 09:15:49;;;;;;;;;3.00;3.00;;;;;23.94;47.53;100926.59;5054994;28;45819;-64
2021/08/19 09:18:32;;;;;;;;;1.33;1.33;;;;;23.85;47.47;100926.06;5055706;28;46096;-64
2021/08/19 09:20:58;;;;;;;;;3.00;3.00;;;;;23.83;47.73;100917.97;5054321;28;45591;-64
2021/08/19 09:23:24;;;;;;;;;9.00;3.33;;;;;23.84;47.30;100927.03;5056715;28;45705;-64
2021/08/19 09:25:49;;;;;;;;;2.00;2.00;;;;;23.74;47.74;100930.06;5076028;28;45741;-64
2021/08/19 09:28:20;;;;;;;;;1.67;1.67;;;;;23.68;47.70;100929.41;5056639;28;48015;-65
2021/08/19 09:30:56;;;;;;;;;6.33;4.67;;;;;23.69;48.01;100931.16;5071284;28;45417;-64
2021/08/19 09:33:24;;;;;;;;;4.67;4.67;;;;;23.70;48.41;100930.22;5057624;28;45334;-64
2021/08/19 09:35:51;;;;;;;;;3.00;2.00;;;;;23.72;47.85;100936.50;5057368;28;45869;-64
2021/08/19 09:38:22;;;;;;;;;1.67;1.67;;;;;23.78;48.34;100924.56;5068696;28;46110;-64
2021/08/19 09:41:11;;;;;;;;;3.00;3.00;;;;;23.84;47.75;100925.19;5055145;28;45512;-64
2021/08/19 09:43:45;;;;;;;;;2.00;1.67;;;;;23.91;48.00;100928.56;5055621;28;45394;-64
2021/08/19 09:46:14;;;;;;;;;3.00;3.00;;;;;23.96;47.75;100919.28;5055405;28;45486;-64
2021/08/19 09:48:39;;;;;;;;;2.00;1.33;;;;;24.02;47.57;100911.84;5054166;28;48376;-64
2021/08/19 09:51:16;;;;;;;;;3.33;3.00;;;;;24.07;47.72;100918.84;5075619;28;45417;-64
2021/08/19 09:53:47;;;;;;;;;1.33;1.33;;;;;24.15;47.28;100916.72;5075321;28;45534;-64
2021/08/19 09:56:13;;;;;;;;;2.33;1.33;;;;;24.22;47.20;100911.03;5075864;28;45521;-64
2021/08/19 09:58:40;;;;;;;;;2.67;2.67;;;;;24.29;46.78;100918.00;5075674;28;45707;-64
2021/08/19 10:01:06;;;;;;;;;1.00;1.00;;;;;24.33;46.94;100912.38;5075193;28;45456;-63
2021/08/19 10:03:32;;;;;;;;;0.67;0.67;;;;;24.39;46.42;100905.81;5075457;27;45527;-64
2021/08/19 10:05:57;;;;;;;;;1.33;1.33;;;;;24.42;46.20;100900.28;5075852;28;45523;-64
2021/08/19 10:08:23;;;;;;;;;1.00;1.00;;;;;24.44;46.23;100898.38;5075100;28;46006;-64
2021/08/19 10:10:52;;;;;;;;;0.00;0.00;;;;;24.47;45.95;100906.38;5057186;28;45471;-64
2021/08/19 10:13:19;;;;;;;;;1.00;1.00;;;;;24.50;46.01;100903.59;5075855;28;45426;-64
2021/08/19 10:15:47;;;;;;;;;2.00;2.00;;;;;24.53;46.14;100903.44;5075622;28;45413;-64
2021/08/19 10:18:20;;;;;;;;;1.67;1.67;;;;;24.57;46.18;100898.78;5075731;28;46194;-64
2021/08/19 10:20:56;;;;;;;;;2.00;2.00;;;;;24.61;45.84;100904.97;5057211;28;45409;-64
2021/08/19 10:23:23;;;;;;;;;0.33;0.33;;;;;24.64;46.04;100899.38;5074100;28;45540;-64
2021/08/19 10:26:13;;;;;;;;;0.00;0.00;;;;;24.69;45.69;100898.25;5073617;28;45550;-64
2021/08/19 10:28:55;;;;;;;;;1.33;1.33;;;;;24.70;45.56;100904.56;5074498;28;45416;-64
2021/08/19 10:31:43;;;;;;;;;1.00;1.00;;;;;24.72;45.29;100902.66;5074943;28;45465;-64
2021/08/19 10:34:16;;;;;;;;;1.33;1.33;;;;;24.72;45.40;100903.59;5056676;28;45393;-64
2021/08/19 10:36:41;;;;;;;;;1.00;1.00;;;;;24.73;45.09;100904.47;5074562;28;45373;-64
2021/08/19 10:39:19;;;;;;;;;0.00;0.00;;;;;24.75;45.55;100897.13;5074332;28;45929;-64
2021/08/19 10:41:49;;;;;;;;;0.00;0.00;;;;;24.78;45.72;100904.25;5075217;28;45737;-64
2021/08/19 10:44:14;;;;;;;;;0.00;0.00;;;;;24.79;45.33;100892.44;5074763;28;45549;-64
2021/08/19 10:46:49;;;;;;;;;0.67;0.67;;;;;24.82;45.09;100895.00;5056191;28;45556;-64
2021/08/19 10:49:30;;;;;;;;;0.67;0.67;;;;;24.84;44.99;100895.81;5074404;28;46044;-63
2021/08/19 10:52:08;;;;;;;;;0.33;0.33;;;;;24.86;45.04;100897.53;5074880;28;45827;-64
2021/08/19 10:54:41;;;;;;;;;1.00;1.00;;;;;24.87;45.09;100899.31;5074122;28;45513;-64
2021/08/19 10:57:30;;;;;;;;;2.33;0.67;;;;;24.88;45.08;100895.63;5074477;28;45927;-63
2021/08/19 11:00:00;;;;;;;;;1.00;0.00;;;;;24.88;44.99;100895.63;5074222;28;45451;-68
2021/08/19 11:02:45;;;;;;;;;0.00;0.00;;;;;24.88;44.98;100903.78;5074739;28;45700;-69
2021/08/19 11:05:13;;;;;;;;;0.00;0.00;;;;;24.91;45.21;100902.78;5073409;28;45534;-68
2021/08/19 11:07:48;;;;;;;;;0.00;0.00;;;;;24.94;44.82;100902.63;5074209;28;45474;-67
2021/08/19 11:10:32;;;;;;;;;1.00;1.00;;;;;24.93;44.67;100896.31;5073964;28;45733;-68
2021/08/19 11:13:01;;;;;;;;;1.00;1.00;;;;;24.97;45.25;100896.22;5056207;28;45565;-69
2021/08/19 11:15:26;;;;;;;;;0.67;0.67;;;;;25.00;45.14;100896.06;5074995;28;45485;-70
2021/08/19 11:17:52;;;;;;;;;0.00;0.00;;;;;25.04;45.20;100894.97;5075942;28;45503;-68
2021/08/19 11:20:32;;;;;;;;;2.00;1.00;;;;;25.09;45.10;100901.09;5074837;28;45510;-69
2021/08/19 11:23:12;;;;;;;;;0.00;0.00;;;;;25.10;45.12;100889.25;5072514;28;45602;-67
2021/08/19 11:25:41;;;;;;;;;0.00;0.00;;;;;25.12;45.29;100890.94;5072692;28;45532;-67